Airport Name : Samandira

Other Name : Istanbul Samand

ICAO : LTBX

IATA :

FAA :

Latitude : 40.992975

Longitude : 29.216539

Country : Turkey

Local Date and Time : 7/16/2019 10:08:00 PM

 

TAF (Terminal Aerodrome Forecast)

TAF LTBX 161340Z 1615/1624 01009KT 9999 SCT035 BECMG 1615/1618 CAVOK BECMG 1622/1624 SCT025 BKN090

 

METAR (METeorological Aerodrome Report)